sensor_id;sensor_type;location;lat;lon;timestamp;P1;durP1;ratioP1;P2;durP2;ratioP2
25936;SDS011;13733;51.178;4.450;2023-08-20T00:00:18;11.85;;;3.67;;
25936;SDS011;13733;51.178;4.450;2023-08-20T00:02:45;10.65;;;3.28;;
25936;SDS011;13733;51.178;4.450;2023-08-20T00:05:12;14.00;;;4.35;;
25936;SDS011;13733;51.178;4.450;2023-08-20T00:07:39;13.20;;;3.42;;
25936;SDS011;13733;51.178;4.450;2023-08-20T00:10:05;13.00;;;3.60;;
25936;SDS011;13733;51.178;4.450;2023-08-20T00:12:32;9.15;;;3.58;;
25936;SDS011;13733;51.178;4.450;2023-08-20T00:14:58;12.18;;;3.55;;
25936;SDS011;13733;51.178;4.450;2023-08-20T00:17:35;10.18;;;3.45;;
25936;SDS011;13733;51.178;4.450;2023-08-20T00:20:02;13.43;;;4.10;;
25936;SDS011;13733;51.178;4.450;2023-08-20T00:22:36;14.00;;;3.42;;
25936;SDS011;13733;51.178;4.450;2023-08-20T00:25:02;11.20;;;3.85;;
25936;SDS011;13733;51.178;4.450;2023-08-20T00:27:29;12.82;;;3.72;;
25936;SDS011;13733;51.178;4.450;2023-08-20T00:29:55;14.10;;;4.05;;
25936;SDS011;13733;51.178;4.450;2023-08-20T00:32:21;15.52;;;4.63;;
25936;SDS011;13733;51.178;4.450;2023-08-20T00:34:47;16.23;;;4.47;;
25936;SDS011;13733;51.178;4.450;2023-08-20T00:37:12;15.40;;;3.63;;
25936;SDS011;13733;51.178;4.450;2023-08-20T00:39:38;16.13;;;4.40;;
25936;SDS011;13733;51.178;4.450;2023-08-20T00:42:05;19.45;;;4.15;;
25936;SDS011;13733;51.178;4.450;2023-08-20T00:44:32;13.77;;;3.90;;
25936;SDS011;13733;51.178;4.450;2023-08-20T00:46:59;15.55;;;4.57;;
25936;SDS011;13733;51.178;4.450;2023-08-20T00:49:30;15.05;;;3.97;;
25936;SDS011;13733;51.178;4.450;2023-08-20T00:51:57;13.00;;;4.20;;
25936;SDS011;13733;51.178;4.450;2023-08-20T00:54:24;13.95;;;3.95;;
25936;SDS011;13733;51.178;4.450;2023-08-20T00:56:51;11.45;;;3.65;;
25936;SDS011;13733;51.178;4.450;2023-08-20T00:59:17;13.75;;;4.13;;
25936;SDS011;13733;51.178;4.450;2023-08-20T01:01:43;15.68;;;3.85;;
25936;SDS011;13733;51.178;4.450;2023-08-20T01:04:09;14.50;;;3.67;;
25936;SDS011;13733;51.178;4.450;2023-08-20T01:07:21;13.95;;;3.50;;
25936;SDS011;13733;51.178;4.450;2023-08-20T01:09:50;14.05;;;3.95;;
25936;SDS011;13733;51.178;4.450;2023-08-20T01:12:34;19.88;;;4.32;;
25936;SDS011;13733;51.178;4.450;2023-08-20T01:15:00;12.50;;;3.95;;
25936;SDS011;13733;51.178;4.450;2023-08-20T01:17:26;18.00;;;4.75;;
25936;SDS011;13733;51.178;4.450;2023-08-20T01:19:52;8.25;;;3.20;;
25936;SDS011;13733;51.178;4.450;2023-08-20T01:25:04;14.60;;;4.63;;
25936;SDS011;13733;51.178;4.450;2023-08-20T01:30:15;15.43;;;4.40;;
25936;SDS011;13733;51.178;4.450;2023-08-20T01:32:41;20.20;;;4.22;;
25936;SDS011;13733;51.178;4.450;2023-08-20T01:35:13;11.63;;;3.83;;
25936;SDS011;13733;51.178;4.450;2023-08-20T01:37:41;10.77;;;3.63;;
25936;SDS011;13733;51.178;4.450;2023-08-20T01:40:08;18.75;;;3.78;;
25936;SDS011;13733;51.178;4.450;2023-08-20T01:42:37;12.70;;;3.25;;
25936;SDS011;13733;51.178;4.450;2023-08-20T01:45:04;12.43;;;4.05;;
25936;SDS011;13733;51.178;4.450;2023-08-20T01:47:31;17.77;;;3.45;;
25936;SDS011;13733;51.178;4.450;2023-08-20T01:50:00;13.60;;;4.15;;
25936;SDS011;13733;51.178;4.450;2023-08-20T01:52:31;12.30;;;3.30;;
25936;SDS011;13733;51.178;4.450;2023-08-20T01:54:57;13.35;;;3.78;;
25936;SDS011;13733;51.178;4.450;2023-08-20T01:57:23;14.07;;;3.70;;
25936;SDS011;13733;51.178;4.450;2023-08-20T01:59:49;13.40;;;3.70;;
25936;SDS011;13733;51.178;4.450;2023-08-20T02:02:15;16.92;;;3.95;;
25936;SDS011;13733;51.178;4.450;2023-08-20T02:04:41;15.15;;;3.95;;
25936;SDS011;13733;51.178;4.450;2023-08-20T02:07:06;16.17;;;4.22;;
25936;SDS011;13733;51.178;4.450;2023-08-20T02:09:32;18.35;;;3.40;;
25936;SDS011;13733;51.178;4.450;2023-08-20T02:11:59;15.20;;;3.78;;
25936;SDS011;13733;51.178;4.450;2023-08-20T02:14:26;12.73;;;3.78;;
25936;SDS011;13733;51.178;4.450;2023-08-20T02:16:54;10.63;;;3.10;;
25936;SDS011;13733;51.178;4.450;2023-08-20T02:19:19;10.80;;;3.13;;
25936;SDS011;13733;51.178;4.450;2023-08-20T02:21:45;11.65;;;3.47;;
25936;SDS011;13733;51.178;4.450;2023-08-20T02:24:11;15.38;;;4.07;;
25936;SDS011;13733;51.178;4.450;2023-08-20T02:26:37;13.52;;;3.50;;
25936;SDS011;13733;51.178;4.450;2023-08-20T02:29:02;17.77;;;3.78;;
25936;SDS011;13733;51.178;4.450;2023-08-20T02:31:30;14.80;;;4.03;;
25936;SDS011;13733;51.178;4.450;2023-08-20T02:33:56;16.15;;;3.65;;
25936;SDS011;13733;51.178;4.450;2023-08-20T02:36:22;15.88;;;3.92;;
25936;SDS011;13733;51.178;4.450;2023-08-20T02:38:47;16.77;;;4.38;;
25936;SDS011;13733;51.178;4.450;2023-08-20T02:41:14;16.80;;;4.25;;
25936;SDS011;13733;51.178;4.450;2023-08-20T02:43:40;13.73;;;3.35;;
25936;SDS011;13733;51.178;4.450;2023-08-20T02:46:06;12.93;;;3.75;;
25936;SDS011;13733;51.178;4.450;2023-08-20T02:48:33;12.73;;;3.58;;
25936;SDS011;13733;51.178;4.450;2023-08-20T02:50:59;13.13;;;3.45;;
25936;SDS011;13733;51.178;4.450;2023-08-20T02:53:25;15.90;;;3.70;;
25936;SDS011;13733;51.178;4.450;2023-08-20T02:55:51;15.20;;;3.75;;
25936;SDS011;13733;51.178;4.450;2023-08-20T02:58:16;15.18;;;3.75;;
25936;SDS011;13733;51.178;4.450;2023-08-20T03:00:42;12.45;;;3.35;;
25936;SDS011;13733;51.178;4.450;2023-08-20T03:03:10;12.15;;;3.80;;
25936;SDS011;13733;51.178;4.450;2023-08-20T03:05:38;15.10;;;4.28;;
25936;SDS011;13733;51.178;4.450;2023-08-20T03:08:04;14.02;;;3.72;;
25936;SDS011;13733;51.178;4.450;2023-08-20T03:10:31;15.93;;;4.53;;
25936;SDS011;13733;51.178;4.450;2023-08-20T03:13:00;20.15;;;4.25;;
25936;SDS011;13733;51.178;4.450;2023-08-20T03:15:30;14.07;;;3.40;;
25936;SDS011;13733;51.178;4.450;2023-08-20T03:17:56;10.27;;;3.60;;
25936;SDS011;13733;51.178;4.450;2023-08-20T03:20:22;13.30;;;3.83;;
25936;SDS011;13733;51.178;4.450;2023-08-20T03:22:48;13.52;;;3.88;;
25936;SDS011;13733;51.178;4.450;2023-08-20T03:25:14;15.57;;;4.10;;
25936;SDS011;13733;51.178;4.450;2023-08-20T03:27:39;16.75;;;4.10;;
25936;SDS011;13733;51.178;4.450;2023-08-20T03:30:07;10.93;;;3.67;;
25936;SDS011;13733;51.178;4.450;2023-08-20T03:32:33;14.20;;;3.88;;
25936;SDS011;13733;51.178;4.450;2023-08-20T03:34:59;15.27;;;3.92;;
25936;SDS011;13733;51.178;4.450;2023-08-20T03:37:25;15.32;;;4.45;;
25936;SDS011;13733;51.178;4.450;2023-08-20T03:39:51;12.50;;;3.60;;
25936;SDS011;13733;51.178;4.450;2023-08-20T03:42:17;17.95;;;4.38;;
25936;SDS011;13733;51.178;4.450;2023-08-20T03:44:43;16.08;;;3.92;;
25936;SDS011;13733;51.178;4.450;2023-08-20T03:47:09;12.95;;;3.72;;
25936;SDS011;13733;51.178;4.450;2023-08-20T03:49:35;13.77;;;3.47;;
25936;SDS011;13733;51.178;4.450;2023-08-20T03:52:01;18.17;;;4.00;;
25936;SDS011;13733;51.178;4.450;2023-08-20T03:54:28;15.48;;;3.80;;
25936;SDS011;13733;51.178;4.450;2023-08-20T03:56:56;18.63;;;4.50;;
25936;SDS011;13733;51.178;4.450;2023-08-20T03:59:22;13.38;;;3.83;;
25936;SDS011;13733;51.178;4.450;2023-08-20T04:01:48;13.75;;;3.90;;
25936;SDS011;13733;51.178;4.450;2023-08-20T04:04:14;15.88;;;3.58;;
25936;SDS011;13733;51.178;4.450;2023-08-20T04:06:40;15.50;;;4.15;;
25936;SDS011;13733;51.178;4.450;2023-08-20T04:09:07;13.32;;;4.00;;
25936;SDS011;13733;51.178;4.450;2023-08-20T04:11:34;18.20;;;3.97;;
25936;SDS011;13733;51.178;4.450;2023-08-20T04:14:00;16.67;;;4.45;;
25936;SDS011;13733;51.178;4.450;2023-08-20T04:16:26;12.23;;;3.95;;
25936;SDS011;13733;51.178;4.450;2023-08-20T04:18:53;16.80;;;4.22;;
25936;SDS011;13733;51.178;4.450;2023-08-20T04:21:19;12.77;;;3.47;;
25936;SDS011;13733;51.178;4.450;2023-08-20T04:23:44;12.88;;;3.97;;
25936;SDS011;13733;51.178;4.450;2023-08-20T04:26:10;13.40;;;4.20;;
25936;SDS011;13733;51.178;4.450;2023-08-20T04:28:36;18.02;;;4.18;;
25936;SDS011;13733;51.178;4.450;2023-08-20T04:31:03;14.55;;;4.18;;
25936;SDS011;13733;51.178;4.450;2023-08-20T04:33:43;16.40;;;3.92;;
25936;SDS011;13733;51.178;4.450;2023-08-20T04:36:11;15.20;;;3.70;;
25936;SDS011;13733;51.178;4.450;2023-08-20T04:38:37;18.55;;;4.32;;
25936;SDS011;13733;51.178;4.450;2023-08-20T04:41:04;15.30;;;4.03;;
25936;SDS011;13733;51.178;4.450;2023-08-20T04:43:31;13.05;;;4.20;;
25936;SDS011;13733;51.178;4.450;2023-08-20T04:45:58;16.55;;;4.22;;
25936;SDS011;13733;51.178;4.450;2023-08-20T04:48:24;16.02;;;4.00;;
25936;SDS011;13733;51.178;4.450;2023-08-20T04:50:50;19.45;;;5.10;;
25936;SDS011;13733;51.178;4.450;2023-08-20T04:53:17;13.57;;;3.95;;
25936;SDS011;13733;51.178;4.450;2023-08-20T04:55:45;12.70;;;3.90;;
25936;SDS011;13733;51.178;4.450;2023-08-20T04:58:11;16.65;;;4.10;;
25936;SDS011;13733;51.178;4.450;2023-08-20T05:00:37;15.15;;;4.05;;
25936;SDS011;13733;51.178;4.450;2023-08-20T05:03:10;12.20;;;3.60;;
25936;SDS011;13733;51.178;4.450;2023-08-20T05:05:36;13.63;;;4.05;;
25936;SDS011;13733;51.178;4.450;2023-08-20T05:08:02;11.48;;;3.50;;
25936;SDS011;13733;51.178;4.450;2023-08-20T05:10:29;11.10;;;3.45;;
25936;SDS011;13733;51.178;4.450;2023-08-20T05:12:56;18.90;;;4.40;;
25936;SDS011;13733;51.178;4.450;2023-08-20T05:15:22;16.38;;;4.45;;
25936;SDS011;13733;51.178;4.450;2023-08-20T05:17:49;17.92;;;4.35;;
25936;SDS011;13733;51.178;4.450;2023-08-20T05:20:15;17.42;;;4.47;;
25936;SDS011;13733;51.178;4.450;2023-08-20T05:22:42;14.73;;;4.40;;
25936;SDS011;13733;51.178;4.450;2023-08-20T05:25:08;13.60;;;4.15;;
25936;SDS011;13733;51.178;4.450;2023-08-20T05:27:35;11.13;;;3.30;;
25936;SDS011;13733;51.178;4.450;2023-08-20T05:30:01;15.55;;;4.32;;
25936;SDS011;13733;51.178;4.450;2023-08-20T05:32:27;18.45;;;4.88;;
25936;SDS011;13733;51.178;4.450;2023-08-20T05:34:52;13.60;;;3.80;;
25936;SDS011;13733;51.178;4.450;2023-08-20T05:37:18;14.02;;;3.83;;
25936;SDS011;13733;51.178;4.450;2023-08-20T05:39:44;18.77;;;4.03;;
25936;SDS011;13733;51.178;4.450;2023-08-20T05:42:11;13.35;;;4.47;;
25936;SDS011;13733;51.178;4.450;2023-08-20T05:44:40;16.48;;;5.55;;
25936;SDS011;13733;51.178;4.450;2023-08-20T05:49:36;13.48;;;4.70;;
25936;SDS011;13733;51.178;4.450;2023-08-20T05:52:03;18.90;;;5.15;;
25936;SDS011;13733;51.178;4.450;2023-08-20T05:54:29;15.38;;;4.60;;
25936;SDS011;13733;51.178;4.450;2023-08-20T05:56:57;18.35;;;4.75;;
25936;SDS011;13733;51.178;4.450;2023-08-20T05:59:24;15.93;;;4.43;;
25936;SDS011;13733;51.178;4.450;2023-08-20T06:01:49;13.27;;;4.55;;
25936;SDS011;13733;51.178;4.450;2023-08-20T06:04:15;17.65;;;5.03;;
25936;SDS011;13733;51.178;4.450;2023-08-20T06:06:41;17.23;;;5.35;;
25936;SDS011;13733;51.178;4.450;2023-08-20T06:09:07;14.52;;;4.25;;
25936;SDS011;13733;51.178;4.450;2023-08-20T06:11:33;15.73;;;4.70;;
25936;SDS011;13733;51.178;4.450;2023-08-20T06:13:59;16.13;;;5.03;;
25936;SDS011;13733;51.178;4.450;2023-08-20T06:16:25;14.73;;;4.10;;
25936;SDS011;13733;51.178;4.450;2023-08-20T06:18:51;17.67;;;3.97;;
25936;SDS011;13733;51.178;4.450;2023-08-20T06:21:19;14.93;;;4.32;;
25936;SDS011;13733;51.178;4.450;2023-08-20T06:23:44;16.48;;;3.80;;
25936;SDS011;13733;51.178;4.450;2023-08-20T06:26:10;14.55;;;4.22;;
25936;SDS011;13733;51.178;4.450;2023-08-20T06:28:36;11.23;;;3.50;;
25936;SDS011;13733;51.178;4.450;2023-08-20T06:31:02;14.88;;;3.78;;
25936;SDS011;13733;51.178;4.450;2023-08-20T06:33:28;16.20;;;3.33;;
25936;SDS011;13733;51.178;4.450;2023-08-20T06:35:54;16.98;;;3.42;;
25936;SDS011;13733;51.178;4.450;2023-08-20T06:38:20;13.60;;;3.45;;
25936;SDS011;13733;51.178;4.450;2023-08-20T06:40:45;12.48;;;3.22;;
25936;SDS011;13733;51.178;4.450;2023-08-20T06:43:11;14.35;;;3.58;;
25936;SDS011;13733;51.178;4.450;2023-08-20T06:45:37;15.27;;;3.22;;
25936;SDS011;13733;51.178;4.450;2023-08-20T06:48:03;11.05;;;3.03;;
25936;SDS011;13733;51.178;4.450;2023-08-20T06:50:29;12.25;;;3.15;;
25936;SDS011;13733;51.178;4.450;2023-08-20T06:52:55;14.25;;;2.80;;
25936;SDS011;13733;51.178;4.450;2023-08-20T06:55:20;14.45;;;3.58;;
25936;SDS011;13733;51.178;4.450;2023-08-20T06:57:46;13.77;;;3.30;;
25936;SDS011;13733;51.178;4.450;2023-08-20T07:00:12;13.98;;;3.53;;
25936;SDS011;13733;51.178;4.450;2023-08-20T07:02:38;13.93;;;4.05;;
25936;SDS011;13733;51.178;4.450;2023-08-20T07:05:04;14.25;;;3.58;;
25936;SDS011;13733;51.178;4.450;2023-08-20T07:07:30;11.43;;;3.28;;
25936;SDS011;13733;51.178;4.450;2023-08-20T07:09:55;11.40;;;3.55;;
25936;SDS011;13733;51.178;4.450;2023-08-20T07:12:21;13.77;;;3.55;;
25936;SDS011;13733;51.178;4.450;2023-08-20T07:14:47;14.00;;;3.70;;
25936;SDS011;13733;51.178;4.450;2023-08-20T07:17:13;14.07;;;3.50;;
25936;SDS011;13733;51.178;4.450;2023-08-20T07:19:39;12.45;;;3.75;;
25936;SDS011;13733;51.178;4.450;2023-08-20T07:22:04;21.92;;;3.97;;
25936;SDS011;13733;51.178;4.450;2023-08-20T07:24:30;15.57;;;4.18;;
25936;SDS011;13733;51.178;4.450;2023-08-20T07:27:00;13.73;;;3.25;;
25936;SDS011;13733;51.178;4.450;2023-08-20T07:29:27;14.77;;;3.67;;
25936;SDS011;13733;51.178;4.450;2023-08-20T07:31:56;12.57;;;3.33;;
25936;SDS011;13733;51.178;4.450;2023-08-20T07:34:22;11.18;;;3.65;;
25936;SDS011;13733;51.178;4.450;2023-08-20T07:36:48;14.52;;;3.22;;
25936;SDS011;13733;51.178;4.450;2023-08-20T07:39:14;9.52;;;3.10;;
25936;SDS011;13733;51.178;4.450;2023-08-20T07:41:40;12.73;;;3.67;;
25936;SDS011;13733;51.178;4.450;2023-08-20T07:44:06;10.07;;;3.25;;
25936;SDS011;13733;51.178;4.450;2023-08-20T07:46:32;14.20;;;3.13;;
25936;SDS011;13733;51.178;4.450;2023-08-20T07:48:59;14.68;;;2.95;;
25936;SDS011;13733;51.178;4.450;2023-08-20T07:51:24;7.63;;;2.40;;
25936;SDS011;13733;51.178;4.450;2023-08-20T07:53:50;16.05;;;3.75;;
25936;SDS011;13733;51.178;4.450;2023-08-20T07:56:16;11.75;;;3.65;;
25936;SDS011;13733;51.178;4.450;2023-08-20T07:58:43;12.90;;;3.10;;
25936;SDS011;13733;51.178;4.450;2023-08-20T08:01:09;10.27;;;2.78;;
25936;SDS011;13733;51.178;4.450;2023-08-20T08:03:35;9.23;;;2.65;;
25936;SDS011;13733;51.178;4.450;2023-08-20T08:06:01;9.02;;;2.50;;
25936;SDS011;13733;51.178;4.450;2023-08-20T08:08:26;10.90;;;3.13;;
25936;SDS011;13733;51.178;4.450;2023-08-20T08:10:52;5.95;;;1.95;;
25936;SDS011;13733;51.178;4.450;2023-08-20T08:13:22;11.27;;;2.58;;
25936;SDS011;13733;51.178;4.450;2023-08-20T08:18:14;6.25;;;2.53;;
25936;SDS011;13733;51.178;4.450;2023-08-20T08:20:40;10.32;;;2.22;;
25936;SDS011;13733;51.178;4.450;2023-08-20T08:23:06;9.88;;;2.50;;
25936;SDS011;13733;51.178;4.450;2023-08-20T08:25:32;6.72;;;2.28;;
25936;SDS011;13733;51.178;4.450;2023-08-20T08:27:58;9.68;;;2.08;;
25936;SDS011;13733;51.178;4.450;2023-08-20T08:30:24;8.63;;;2.20;;
25936;SDS011;13733;51.178;4.450;2023-08-20T08:32:50;8.27;;;2.47;;
25936;SDS011;13733;51.178;4.450;2023-08-20T08:35:16;9.63;;;2.60;;
25936;SDS011;13733;51.178;4.450;2023-08-20T08:37:42;8.52;;;2.35;;
25936;SDS011;13733;51.178;4.450;2023-08-20T08:40:08;8.85;;;2.90;;
25936;SDS011;13733;51.178;4.450;2023-08-20T08:42:35;6.70;;;1.88;;
25936;SDS011;13733;51.178;4.450;2023-08-20T08:45:01;8.75;;;2.08;;
25936;SDS011;13733;51.178;4.450;2023-08-20T08:47:27;5.82;;;1.90;;
25936;SDS011;13733;51.178;4.450;2023-08-20T08:49:57;6.43;;;2.00;;
25936;SDS011;13733;51.178;4.450;2023-08-20T08:52:23;9.13;;;2.28;;
25936;SDS011;13733;51.178;4.450;2023-08-20T08:54:50;8.05;;;2.35;;
25936;SDS011;13733;51.178;4.450;2023-08-20T08:57:17;7.05;;;1.92;;
25936;SDS011;13733;51.178;4.450;2023-08-20T08:59:43;10.13;;;2.95;;
25936;SDS011;13733;51.178;4.450;2023-08-20T09:02:09;6.43;;;2.30;;
25936;SDS011;13733;51.178;4.450;2023-08-20T09:04:39;7.63;;;2.65;;
25936;SDS011;13733;51.178;4.450;2023-08-20T09:07:09;5.53;;;2.10;;
25936;SDS011;13733;51.178;4.450;2023-08-20T09:09:38;8.18;;;2.33;;
25936;SDS011;13733;51.178;4.450;2023-08-20T09:12:17;10.00;;;2.45;;
25936;SDS011;13733;51.178;4.450;2023-08-20T09:14:48;7.30;;;2.13;;
25936;SDS011;13733;51.178;4.450;2023-08-20T09:17:17;6.97;;;2.05;;
25936;SDS011;13733;51.178;4.450;2023-08-20T09:19:45;9.45;;;2.50;;
25936;SDS011;13733;51.178;4.450;2023-08-20T09:22:11;7.85;;;2.58;;
25936;SDS011;13733;51.178;4.450;2023-08-20T09:24:39;5.63;;;2.10;;
25936;SDS011;13733;51.178;4.450;2023-08-20T09:27:13;7.30;;;2.28;;
25936;SDS011;13733;51.178;4.450;2023-08-20T09:32:18;6.00;;;1.98;;
25936;SDS011;13733;51.178;4.450;2023-08-20T09:34:48;6.32;;;2.03;;
25936;SDS011;13733;51.178;4.450;2023-08-20T09:37:15;7.05;;;2.03;;
25936;SDS011;13733;51.178;4.450;2023-08-20T09:39:42;9.65;;;2.35;;
25936;SDS011;13733;51.178;4.450;2023-08-20T09:42:08;7.72;;;2.03;;
25936;SDS011;13733;51.178;4.450;2023-08-20T09:44:35;5.57;;;1.85;;
25936;SDS011;13733;51.178;4.450;2023-08-20T09:47:05;10.60;;;2.53;;
25936;SDS011;13733;51.178;4.450;2023-08-20T09:49:36;6.80;;;2.08;;
25936;SDS011;13733;51.178;4.450;2023-08-20T09:52:06;7.05;;;2.00;;
25936;SDS011;13733;51.178;4.450;2023-08-20T09:54:39;6.90;;;1.95;;
25936;SDS011;13733;51.178;4.450;2023-08-20T09:57:35;4.57;;;1.83;;
25936;SDS011;13733;51.178;4.450;2023-08-20T10:00:03;5.45;;;2.15;;
25936;SDS011;13733;51.178;4.450;2023-08-20T10:02:41;4.22;;;1.70;;
25936;SDS011;13733;51.178;4.450;2023-08-20T10:05:08;12.18;;;2.78;;
25936;SDS011;13733;51.178;4.450;2023-08-20T10:07:35;6.40;;;1.77;;
25936;SDS011;13733;51.178;4.450;2023-08-20T10:10:06;5.30;;;2.00;;
25936;SDS011;13733;51.178;4.450;2023-08-20T10:12:33;9.30;;;2.22;;
25936;SDS011;13733;51.178;4.450;2023-08-20T10:15:01;5.95;;;1.88;;
25936;SDS011;13733;51.178;4.450;2023-08-20T10:17:32;7.18;;;1.90;;
25936;SDS011;13733;51.178;4.450;2023-08-20T10:19:59;6.75;;;1.98;;
25936;SDS011;13733;51.178;4.450;2023-08-20T10:25:06;8.02;;;1.90;;
25936;SDS011;13733;51.178;4.450;2023-08-20T10:27:34;6.15;;;1.95;;
25936;SDS011;13733;51.178;4.450;2023-08-20T10:30:02;9.50;;;2.28;;
25936;SDS011;13733;51.178;4.450;2023-08-20T10:32:54;7.95;;;2.10;;
25936;SDS011;13733;51.178;4.450;2023-08-20T10:35:26;6.95;;;1.98;;
25936;SDS011;13733;51.178;4.450;2023-08-20T10:38:12;6.65;;;2.30;;
25936;SDS011;13733;51.178;4.450;2023-08-20T10:43:35;6.60;;;1.98;;
25936;SDS011;13733;51.178;4.450;2023-08-20T10:46:15;4.78;;;1.90;;
25936;SDS011;13733;51.178;4.450;2023-08-20T10:51:12;6.68;;;2.10;;
25936;SDS011;13733;51.178;4.450;2023-08-20T10:53:41;8.10;;;2.03;;
25936;SDS011;13733;51.178;4.450;2023-08-20T10:56:12;6.38;;;1.95;;
25936;SDS011;13733;51.178;4.450;2023-08-20T10:58:43;7.40;;;1.67;;
25936;SDS011;13733;51.178;4.450;2023-08-20T11:03:43;5.78;;;1.70;;
25936;SDS011;13733;51.178;4.450;2023-08-20T11:06:10;7.80;;;2.70;;
25936;SDS011;13733;51.178;4.450;2023-08-20T11:08:37;5.95;;;2.25;;
25936;SDS011;13733;51.178;4.450;2023-08-20T11:11:03;6.00;;;1.80;;
25936;SDS011;13733;51.178;4.450;2023-08-20T11:13:32;8.23;;;2.22;;
25936;SDS011;13733;51.178;4.450;2023-08-20T11:15:58;7.05;;;1.83;;
25936;SDS011;13733;51.178;4.450;2023-08-20T11:18:25;7.53;;;2.20;;
25936;SDS011;13733;51.178;4.450;2023-08-20T11:20:51;10.75;;;2.22;;
25936;SDS011;13733;51.178;4.450;2023-08-20T11:23:17;8.35;;;2.10;;
25936;SDS011;13733;51.178;4.450;2023-08-20T11:25:43;7.55;;;1.95;;
25936;SDS011;13733;51.178;4.450;2023-08-20T11:28:09;5.18;;;1.90;;
25936;SDS011;13733;51.178;4.450;2023-08-20T11:30:36;6.35;;;1.83;;
25936;SDS011;13733;51.178;4.450;2023-08-20T11:33:02;3.90;;;1.77;;
25936;SDS011;13733;51.178;4.450;2023-08-20T11:35:28;4.50;;;1.88;;
25936;SDS011;13733;51.178;4.450;2023-08-20T11:37:54;5.25;;;2.33;;
25936;SDS011;13733;51.178;4.450;2023-08-20T11:40:21;5.25;;;1.58;;
25936;SDS011;13733;51.178;4.450;2023-08-20T11:42:47;7.97;;;2.28;;
25936;SDS011;13733;51.178;4.450;2023-08-20T11:45:14;8.95;;;2.30;;
25936;SDS011;13733;51.178;4.450;2023-08-20T11:47:41;5.57;;;2.00;;
25936;SDS011;13733;51.178;4.450;2023-08-20T11:50:07;7.97;;;2.45;;
25936;SDS011;13733;51.178;4.450;2023-08-20T11:52:35;4.72;;;1.90;;
25936;SDS011;13733;51.178;4.450;2023-08-20T11:55:05;5.78;;;1.75;;
25936;SDS011;13733;51.178;4.450;2023-08-20T11:57:33;7.00;;;2.00;;
25936;SDS011;13733;51.178;4.450;2023-08-20T12:00:05;7.38;;;2.00;;
25936;SDS011;13733;51.178;4.450;2023-08-20T12:02:42;6.22;;;1.80;;
25936;SDS011;13733;51.178;4.450;2023-08-20T12:05:08;5.20;;;2.00;;
25936;SDS011;13733;51.178;4.450;2023-08-20T12:07:33;5.82;;;2.00;;
25936;SDS011;13733;51.178;4.450;2023-08-20T12:10:06;7.20;;;2.10;;
25936;SDS011;13733;51.178;4.450;2023-08-20T12:12:45;6.57;;;2.20;;
25936;SDS011;13733;51.178;4.450;2023-08-20T12:15:11;7.22;;;2.10;;
25936;SDS011;13733;51.178;4.450;2023-08-20T12:17:38;9.23;;;2.30;;
25936;SDS011;13733;51.178;4.450;2023-08-20T12:20:04;8.45;;;1.95;;
25936;SDS011;13733;51.178;4.450;2023-08-20T12:22:38;6.78;;;2.10;;
25936;SDS011;13733;51.178;4.450;2023-08-20T12:25:05;6.40;;;1.90;;
25936;SDS011;13733;51.178;4.450;2023-08-20T12:27:31;4.43;;;1.50;;
25936;SDS011;13733;51.178;4.450;2023-08-20T12:29:59;6.25;;;2.05;;
25936;SDS011;13733;51.178;4.450;2023-08-20T12:32:26;5.22;;;1.83;;
25936;SDS011;13733;51.178;4.450;2023-08-20T12:34:53;4.75;;;2.03;;
25936;SDS011;13733;51.178;4.450;2023-08-20T12:37:18;5.68;;;2.03;;
25936;SDS011;13733;51.178;4.450;2023-08-20T12:39:44;5.10;;;1.77;;
25936;SDS011;13733;51.178;4.450;2023-08-20T12:42:10;7.18;;;2.17;;
25936;SDS011;13733;51.178;4.450;2023-08-20T12:44:36;7.50;;;2.08;;
25936;SDS011;13733;51.178;4.450;2023-08-20T12:47:02;7.40;;;2.25;;
25936;SDS011;13733;51.178;4.450;2023-08-20T12:49:28;5.30;;;2.10;;
25936;SDS011;13733;51.178;4.450;2023-08-20T12:51:54;5.88;;;2.20;;
25936;SDS011;13733;51.178;4.450;2023-08-20T12:54:19;4.95;;;1.90;;
25936;SDS011;13733;51.178;4.450;2023-08-20T12:56:45;3.78;;;1.75;;
25936;SDS011;13733;51.178;4.450;2023-08-20T12:59:11;3.85;;;1.70;;
25936;SDS011;13733;51.178;4.450;2023-08-20T13:01:37;4.40;;;1.88;;
25936;SDS011;13733;51.178;4.450;2023-08-20T13:04:03;5.47;;;1.90;;
25936;SDS011;13733;51.178;4.450;2023-08-20T13:06:30;4.10;;;1.73;;
25936;SDS011;13733;51.178;4.450;2023-08-20T13:08:56;5.25;;;1.88;;
25936;SDS011;13733;51.178;4.450;2023-08-20T13:11:22;5.20;;;1.88;;
25936;SDS011;13733;51.178;4.450;2023-08-20T13:13:51;6.00;;;2.30;;
25936;SDS011;13733;51.178;4.450;2023-08-20T13:16:20;5.38;;;1.90;;
25936;SDS011;13733;51.178;4.450;2023-08-20T13:18:47;6.85;;;1.75;;
25936;SDS011;13733;51.178;4.450;2023-08-20T13:21:13;6.05;;;1.95;;
25936;SDS011;13733;51.178;4.450;2023-08-20T13:23:39;5.72;;;1.83;;
25936;SDS011;13733;51.178;4.450;2023-08-20T13:26:06;3.50;;;1.70;;
25936;SDS011;13733;51.178;4.450;2023-08-20T13:28:32;4.90;;;2.22;;
25936;SDS011;13733;51.178;4.450;2023-08-20T13:30:58;5.57;;;1.67;;
25936;SDS011;13733;51.178;4.450;2023-08-20T13:33:23;9.10;;;1.80;;
25936;SDS011;13733;51.178;4.450;2023-08-20T13:35:49;7.70;;;1.88;;
25936;SDS011;13733;51.178;4.450;2023-08-20T13:38:17;4.40;;;1.75;;
25936;SDS011;13733;51.178;4.450;2023-08-20T13:40:44;4.82;;;1.63;;
25936;SDS011;13733;51.178;4.450;2023-08-20T13:43:10;5.97;;;1.92;;
25936;SDS011;13733;51.178;4.450;2023-08-20T13:45:35;4.97;;;1.77;;
25936;SDS011;13733;51.178;4.450;2023-08-20T13:48:01;8.60;;;2.20;;
25936;SDS011;13733;51.178;4.450;2023-08-20T13:50:27;4.70;;;1.85;;
25936;SDS011;13733;51.178;4.450;2023-08-20T13:52:53;4.82;;;1.80;;
25936;SDS011;13733;51.178;4.450;2023-08-20T13:55:19;4.55;;;1.88;;
25936;SDS011;13733;51.178;4.450;2023-08-20T13:57:47;8.30;;;1.77;;
25936;SDS011;13733;51.178;4.450;2023-08-20T14:00:13;7.03;;;2.00;;
25936;SDS011;13733;51.178;4.450;2023-08-20T14:02:39;4.05;;;1.63;;
25936;SDS011;13733;51.178;4.450;2023-08-20T14:05:05;5.60;;;1.75;;
25936;SDS011;13733;51.178;4.450;2023-08-20T14:07:33;5.47;;;1.80;;
25936;SDS011;13733;51.178;4.450;2023-08-20T14:09:59;2.95;;;1.23;;
25936;SDS011;13733;51.178;4.450;2023-08-20T14:12:26;4.65;;;1.92;;
25936;SDS011;13733;51.178;4.450;2023-08-20T14:14:51;6.90;;;1.80;;
25936;SDS011;13733;51.178;4.450;2023-08-20T14:17:17;5.35;;;2.13;;
25936;SDS011;13733;51.178;4.450;2023-08-20T14:19:43;4.05;;;1.60;;
25936;SDS011;13733;51.178;4.450;2023-08-20T14:22:09;3.80;;;2.00;;
25936;SDS011;13733;51.178;4.450;2023-08-20T14:24:35;3.53;;;1.42;;
25936;SDS011;13733;51.178;4.450;2023-08-20T14:27:00;6.38;;;2.20;;
25936;SDS011;13733;51.178;4.450;2023-08-20T14:29:27;5.45;;;1.90;;
25936;SDS011;13733;51.178;4.450;2023-08-20T14:31:53;5.13;;;1.75;;
25936;SDS011;13733;51.178;4.450;2023-08-20T14:34:19;5.47;;;1.60;;
25936;SDS011;13733;51.178;4.450;2023-08-20T14:36:45;4.35;;;1.63;;
25936;SDS011;13733;51.178;4.450;2023-08-20T14:39:10;4.03;;;1.50;;
25936;SDS011;13733;51.178;4.450;2023-08-20T14:41:36;6.65;;;1.98;;
25936;SDS011;13733;51.178;4.450;2023-08-20T14:44:02;5.00;;;1.52;;
25936;SDS011;13733;51.178;4.450;2023-08-20T14:46:28;3.67;;;1.58;;
25936;SDS011;13733;51.178;4.450;2023-08-20T14:48:54;5.28;;;1.83;;
25936;SDS011;13733;51.178;4.450;2023-08-20T14:51:20;5.13;;;1.58;;
25936;SDS011;13733;51.178;4.450;2023-08-20T14:53:47;5.38;;;1.83;;
25936;SDS011;13733;51.178;4.450;2023-08-20T14:56:12;4.80;;;1.88;;
25936;SDS011;13733;51.178;4.450;2023-08-20T14:58:38;7.15;;;1.70;;
25936;SDS011;13733;51.178;4.450;2023-08-20T15:01:04;6.93;;;1.88;;
25936;SDS011;13733;51.178;4.450;2023-08-20T15:03:29;5.70;;;1.63;;